ポートオブスペイン の空港の天気 - METARとTAF

ピアルコ国際空港(ポートオブスペイン) ( TTPP / POS ) - トリニダード・トバゴ ポートオブスペイン (トリニダード島)
飛行場実況気象(Metar)
観測時間11/30 13:00 AST (11/30 17:00 UTC)
風向・風速東南東 5m/s
視程10km以上
天気現象
少しの雲 雲底高度 700m
気温31℃
湿度52%
気圧1008hPa
METARTTPP 301700Z 12009KT 9999 FEW023 31/20 Q1008 NOSIG
過去の天気等 Google飛行場航空写真 Wunderground天気予報

過去48時間のMETAR

飛行場予報(TAF)
発表時間: 11/30 12:00 AST (11/30 16:00 UTC)
予報対象時間: 30日14時 AST ~ 1日14時 AST
風向・風速東 4m/s
視程10km以上
全天の4割程度の雲 雲底高度 760m
30日14時 AST ~ 30日17時 AST に 確率 40% で一時的に
視程7000m
天気現象しゅう雨
全天の4割程度の雲 雲底高度 490m
30日19時 AST ~ 30日21時 AST に徐々に
風向・風速静穏
少しの雲 雲底高度 490m
TAF TTPP 301600Z 3018/0118 09008KT 9999 SCT025
PROB40 TEMPO 3018/3021 7000 SHRA SCT016
BECMG 3023/0101 00000KT FEW016